Latest Weather Observations for Sydney Airport

IDN60801

Issued at 7:32 pm EST Friday 22 May 2015 (issued every 30 minutes, with the page automatically refreshed every 10 minutes)

About weather observations | Map of weather stations | Latest weather observations for NSW | Other Formats
Station Details ID: 066037 Name: SYDNEY AIRPORT AMO Lat: -33.95 Lon: 151.17 Height: 6.0 m
Data from the previous 72 hours. | See also: Recent months at Sydney Airport
Date/Time
EST
Temp
°C
App
Temp
°C
Dew
Point
Rel
Hum
%
Delta-T
°C
Wind Press
QNH
hPa
Press
MSL
hPa
Rain
since 9 am
mm
Dir
 
Spd
km/h
Gust
km/h
Spd
kts
Gust
kts
22/07:17pm 14.7 9.0 11.9 83 1.5 SSW 33 54 18 29 1024.5 1024.5 9.6
22/07:00pm 15.4 8.2 10.6 73 2.5 S 39 59 21 32 1024.1 1024.1 9.6
22/06:30pm 15.6 7.0 10.2 70 2.8 S 46 67 25 36 1023.6 1023.6 9.6
22/05:53pm 13.3 5.3 12.4 94 0.5 SSW 46 72 25 39 1023.2 1023.2 9.6
22/05:50pm 14.0 7.1 12.7 92 0.7 SSW 41 59 22 32 1023.3 1023.3 9.0
22/05:47pm 14.1 7.4 12.2 88 1.0 SW 39 54 21 29 1023.3 1023.3 8.6
22/05:30pm 14.9 7.0 11.3 79 1.9 SSW 44 67 24 36 1022.7 1022.7 8.4
22/05:00pm 14.8 6.4 11.2 79 1.9 S 46 69 25 37 1022.4 1022.4 8.0
22/04:42pm 16.9 6.9 8.0 55 4.5 S 50 69 27 37 1021.8 1021.8 7.8
22/04:30pm 16.9 5.8 8.0 55 4.5 S 56 70 30 38 1021.7 1021.7 7.8
22/04:00pm 16.9 5.9 8.5 57 4.3 S 56 72 30 39 1021.0 1021.0 7.8
22/03:30pm 16.8 7.2 9.5 62 3.8 S 50 65 27 35 1020.6 1020.6 7.8
22/03:07pm 16.5 6.9 10.7 68 3.1 S 52 70 28 38 1020.5 1020.5 7.8
22/03:00pm 17.0 6.3 9.7 62 3.8 S 56 70 30 38 1020.3 1020.3 7.8
22/02:30pm 16.8 6.7 9.0 60 4.0 SSW 52 67 28 36 1019.8 1019.8 7.8
22/02:00pm 16.9 6.4 8.9 59 4.1 S 54 72 29 39 1019.4 1019.4 7.8
22/01:30pm 17.2 5.3 8.6 57 4.4 S 61 74 33 40 1018.9 1018.9 7.8
22/01:00pm 16.5 5.6 10.9 69 3.0 SSW 59 78 32 42 1019.0 1019.0 7.8
22/12:30pm 17.2 5.5 9.5 60 4.0 S 61 87 33 47 1018.3 1018.3 7.8
22/12:00pm 17.2 5.5 9.3 59 4.1 S 61 80 33 43 1017.8 1017.8 7.8
22/11:30am 15.6 4.5 11.5 76 2.2 S 61 82 33 44 1017.8 1017.8 7.8
22/11:06am 15.5 4.5 13.2 86 1.3 S 63 82 34 44 1017.7 1017.7 7.6
22/11:00am 15.4 4.9 13.4 88 1.1 S 61 76 33 41 1018.0 1018.0 7.6
22/10:45am 14.8 4.6 14.4 97 0.2 S 61 82 33 44 1017.9 1017.9 7.4
22/10:30am 14.8 6.7 14.4 97 0.2 SSE 50 70 27 38 1017.8 1017.8 6.8
22/10:09am 15.1 9.2 14.7 97 0.2 S 39 63 21 34 1017.8 1017.8 4.8
22/10:00am 14.5 8.0 14.1 97 0.2 S 41 56 22 30 1017.7 1017.7 2.8
22/09:39am 15.4 9.3 14.0 91 0.8 S 39 69 21 37 1017.6 1017.6 0.6
22/09:30am 16.0 9.6 13.3 84 1.5 SSE 39 50 21 27 1017.3 1017.3 0.0
22/09:00am 15.7 8.4 13.4 86 1.3 S 44 57 24 31 1016.8 1016.8 9.4
22/08:40am 14.9 5.4 13.6 92 0.7 S 56 78 30 42 1016.7 1016.7 9.4
22/08:30am 16.1 8.5 13.6 85 1.4 S 46 63 25 34 1016.6 1016.6 7.8
22/08:05am 15.9 9.7 13.8 87 1.2 S 39 50 21 27 1016.4 1016.4 7.2
22/07:56am 15.1 11.6 13.5 90 0.9 SSW 24 46 13 25 1016.5 1016.5 6.8
22/07:30am 13.3 8.7 12.2 93 0.6 SW 28 33 15 18 1016.5 1016.5 4.8
22/07:00am 13.7 8.2 11.8 88 1.0 SW 32 37 17 20 1016.1 1016.1 2.4
22/06:30am 13.6 8.4 11.7 88 1.0 WSW 30 39 16 21 1015.7 1015.7 2.2
22/05:50am 14.4 8.2 12.8 90 0.9 SSW 37 46 20 25 1015.6 1015.6 1.6
22/05:00am 13.4 9.6 9.7 78 1.9 WSW 20 26 11 14 1015.1 1015.1 0.4
22/04:30am 13.3 9.6 9.4 77 2.0 W 19 24 10 13 1015.4 1015.4 0.4
22/04:00am 12.9 8.5 8.9 76 2.0 WSW 22 28 12 15 1015.5 1015.5 0.4
22/03:30am 13.0 9.5 8.8 75 2.1 W 17 22 9 12 1015.7 1015.7 0.4
22/03:00am 13.0 9.2 9.2 78 1.9 WSW 19 24 10 13 1015.9 1015.9 0.4
22/02:30am 12.6 9.2 9.0 79 1.8 W 17 24 9 13 1016.1 1016.1 0.4
22/02:00am 12.6 9.2 9.2 80 1.7 W 17 22 9 12 1016.5 1016.5 0.4
22/01:30am 12.9 9.1 9.8 81 1.6 WSW 20 28 11 15 1016.3 1016.3 0.4
22/01:00am 14.0 9.9 10.1 77 2.0 WSW 22 30 12 16 1016.5 1016.5 0.4
22/12:30am 13.7 10.0 10.0 78 1.9 WSW 20 28 11 15 1016.9 1016.9 0.4
 
Date/Time
EST
Temp
°C
App
Temp
°C
Dew
Point
Rel
Hum
%
Delta-T
°C
Wind Press
QNH
hPa
Press
MSL
hPa
Rain
since 9 am
mm
Dir
 
Spd
km/h
Gust
km/h
Spd
kts
Gust
kts
21/11:30pm 14.2 10.2 10.4 78 2.0 WSW 22 28 12 15 1017.1 1017.1 0.4
21/11:00pm 14.7 11.1 10.7 77 2.1 WSW 20 26 11 14 1017.0 1017.0 0.4
21/10:30pm 15.1 11.0 11.4 78 2.0 SW 24 28 13 15 1017.1 1017.1 0.4
21/10:00pm 15.6 10.9 12.1 80 1.9 SW 28 32 15 17 1017.3 1017.3 0.4
21/09:37pm 16.2 11.8 13.0 81 1.8 SSW 28 46 15 25 1017.3 1017.3 0.4
21/09:30pm 16.2 12.2 13.1 82 1.7 SSW 26 32 14 17 1017.2 1017.2 0.4
21/09:00pm 16.1 11.9 13.4 84 1.5 SSW 28 33 15 18 1017.4 1017.4 0.4
21/08:30pm 16.3 12.2 13.8 85 1.4 SSW 28 35 15 19 1017.4 1017.4 0.4
21/08:00pm 15.9 10.1 12.6 81 1.8 S 35 52 19 28 1017.7 1017.7 0.4
21/07:58pm 15.4 9.8 11.5 77 2.1 S 32 52 17 28 1017.8 1017.8 0.4
21/07:30pm 14.7 9.9 11.7 82 1.6 SW 28 33 15 18 1017.6 1017.6 0.4
21/07:21pm 15.6 9.8 11.5 76 2.2 SSW 33 41 18 22 1017.6 1017.6 0.2
21/07:00pm 16.6 12.1 13.8 83 1.6 SSW 30 37 16 20 1017.7 1017.7 0.2
21/06:37pm 16.2 11.4 13.9 86 1.3 S 32 41 17 22 1017.4 1017.4 0.2
21/06:30pm 16.2 11.2 13.5 84 1.5 SSW 32 41 17 22 1017.5 1017.5 0.0
21/06:08pm 16.9 11.7 13.3 79 2.0 SSW 33 52 18 28 1017.4 1017.4 0.0
21/06:00pm 17.5 12.9 13.6 78 2.2 SSW 30 39 16 21 1017.3 1017.3 0.0
21/05:30pm 17.6 14.1 12.3 71 2.9 SSW 22 28 12 15 1017.2 1017.2 0.0
21/05:00pm 17.7 13.5 12.5 71 2.9 SSW 26 30 14 16 1017.1 1017.1 0.0
21/04:30pm 18.0 13.7 12.0 68 3.3 SSW 26 33 14 18 1017.0 1017.0 0.0
21/04:00pm 18.4 14.7 12.7 69 3.2 S 24 28 13 15 1017.0 1017.0 0.0
21/03:30pm 18.2 14.8 12.6 70 3.1 S 22 30 12 16 1016.9 1016.9 0.0
21/03:00pm 18.6 14.6 11.9 65 3.7 SSW 24 30 13 16 1016.8 1016.8 0.0
21/02:30pm 18.8 14.4 11.7 63 3.9 SSW 26 32 14 17 1016.8 1016.8 0.0
21/02:00pm 18.7 14.6 11.4 62 4.0 S 24 30 13 16 1016.8 1016.8 0.0
21/01:30pm 19.2 16.0 11.8 62 4.1 S 20 28 11 15 1016.7 1016.7 0.0
21/01:00pm 18.5 14.2 12.0 66 3.6 S 26 32 14 17 1017.2 1017.2 0.0
21/12:30pm 19.4 15.6 12.4 64 3.9 S 24 32 13 17 1017.4 1017.4 0.0
21/12:00pm 19.7 17.1 11.9 60 4.3 S 17 22 9 12 1018.0 1018.0 0.0
21/11:30am 19.3 17.7 10.1 55 4.9 SW 9 20 5 11 1018.4 1018.4 0.0
21/11:00am 19.0 16.5 8.1 49 5.6 W 11 19 6 10 1018.7 1018.7 0.0
21/10:30am 19.1 15.9 8.5 50 5.5 WNW 15 35 8 19 1018.9 1018.9 0.0
21/10:00am 18.8 15.1 7.8 48 5.6 W 17 26 9 14 1018.8 1018.8 0.0
21/09:30am 18.1 14.1 8.1 52 5.1 W 19 24 10 13 1018.7 1018.7 0.0
21/09:00am 17.2 13.3 8.8 57 4.3 W 19 24 10 13 1018.7 1018.7 0.2
21/08:30am 16.8 13.2 9.7 63 3.7 W 19 26 10 14 1018.4 1018.4 0.2
21/08:00am 16.3 12.8 10.2 67 3.2 WNW 19 26 10 14 1017.8 1017.8 0.2
21/07:30am 15.3 12.2 10.3 72 2.6 W 17 22 9 12 1017.7 1017.7 0.2
21/07:00am 15.0 10.9 10.2 73 2.5 WNW 22 28 12 15 1017.6 1017.6 0.2
21/06:30am 15.2 12.1 10.2 72 2.6 NW 17 26 9 14 1017.3 1017.3 0.2
21/06:00am 15.0 12.3 10.4 74 2.4 WNW 15 17 8 9 1017.4 1017.4 0.2
21/05:30am 15.8 14.0 10.7 71 2.7 W 11 13 6 7 1017.3 1017.3 0.2
21/05:00am 15.8 14.0 10.9 72 2.6 W 11 11 6 6 1016.5 1016.5 0.2
21/04:30am 16.2 14.5 11.2 72 2.7 WNW 11 13 6 7 1016.1 1016.1 0.2
21/04:00am 16.7 15.0 11.3 70 2.9 WNW 11 13 6 7 1016.3 1016.3 0.2
21/03:30am 17.1 16.5 12.2 73 2.7 NW 7 11 4 6 1016.3 1016.3 0.2
21/03:00am 16.8 16.3 12.8 77 2.2 NW 7 9 4 5 1016.5 1016.5 0.2
21/02:30am 17.1 17.2 11.4 69 3.1 NNW 2 7 1 4 1016.5 1016.5 0.2
21/02:00am 17.5 15.7 11.0 65 3.5 WNW 11 17 6 9 1016.4 1016.4 0.2
21/01:30am 17.8 15.2 10.7 63 3.8 WNW 15 19 8 10 1016.6 1016.6 0.2
21/01:00am 18.1 16.5 11.5 65 3.6 W 11 15 6 8 1016.3 1016.3 0.2
21/12:30am 18.0 15.4 12.0 68 3.3 WNW 17 20 9 11 1016.4 1016.4 0.2
21/12:00am 17.9 16.2 12.5 70 3.0 WNW 13 15 7 8 1016.4 1016.4 0.2
 
Date/Time
EST
Temp
°C
App
Temp
°C
Dew
Point
Rel
Hum
%
Delta-T
°C
Wind Press
QNH
hPa
Press
MSL
hPa
Rain
since 9 am
mm
Dir
 
Spd
km/h
Gust
km/h
Spd
kts
Gust
kts
20/11:30pm 18.6 16.5 12.3 67 3.5 WNW 15 17 8 9 1016.5 1016.5 0.2
20/11:00pm 19.0 16.3 13.0 68 3.4 NW 19 24 10 13 1016.5 1016.5 0.2
20/10:30pm 19.4 16.7 13.0 66 3.6 NW 19 24 10 13 1015.9 1015.9 0.2
20/10:00pm 19.5 17.6 14.1 71 3.1 WNW 17 20 9 11 1016.2 1016.2 0.2
20/09:30pm 20.2 18.5 14.7 70 3.2 NW 17 26 9 14 1015.9 1015.9 0.2
20/09:00pm 20.6 19.3 14.8 69 3.4 NW 15 17 8 9 1015.8 1015.8 0.2
20/08:30pm 20.3 19.8 15.0 71 3.1 NW 11 15 6 8 1015.4 1015.4 0.2
20/08:00pm 20.7 20.2 14.9 69 3.4 NNW 11 13 6 7 1015.5 1015.5 0.2
20/07:30pm 20.9 20.9 15.3 70 3.3 WSW 9 11 5 6 1015.3 1015.3 0.2
20/07:00pm 20.9 20.4 15.0 69 3.5 NNE 11 13 6 7 1014.8 1014.8 0.2
20/06:30pm 20.8 19.8 14.6 67 3.6 NE 13 15 7 8 1014.4 1014.4 0.2
20/06:00pm 20.7 19.5 14.1 66 3.8 ENE 13 15 7 8 1013.9 1013.9 0.2
20/05:30pm 21.4 20.1 13.6 61 4.5 NNE 13 17 7 9 1013.9 1013.9 0.2
20/05:00pm 21.8 20.9 13.7 60 4.7 NNE 11 13 6 7 1013.6 1013.6 0.2
20/04:30pm 22.4 21.4 13.4 56 5.2 ENE 11 13 6 7 1013.6 1013.6 0.2
20/04:00pm 24.0 23.1 12.7 49 6.5 E 9 13 5 7 1013.6 1013.6 0.2
20/03:30pm 24.3 22.9 12.2 46 6.9 NE 11 20 6 11 1013.2 1013.2 0.2
20/03:00pm 24.8 23.1 11.3 42 7.6 NNW 11 15 6 8 1013.0 1013.0 0.2
20/02:30pm 25.2 23.9 11.4 42 7.8 W 9 15 5 8 1013.2 1013.2 0.2
20/02:00pm 24.8 25.2 11.3 42 7.6 CALM 0 6 0 3 1013.4 1013.4 0.2
20/01:30pm 23.5 22.8 12.0 48 6.5 NNE 7 9 4 5 1013.3 1013.3 0.2
20/01:00pm 23.0 21.8 11.6 48 6.4 NW 9 15 5 8 1013.6 1013.6 0.2
20/12:30pm 23.6 21.3 11.9 47 6.6 NW 15 20 8 11 1013.9 1013.9 0.2
20/12:00pm 23.0 20.5 11.1 47 6.6 NW 15 19 8 10 1014.5 1014.5 0.2
20/11:30am 22.4 20.1 11.7 50 6.0 NW 15 19 8 10 1014.9 1014.9 0.0
20/11:00am 21.6 18.9 11.7 53 5.5 NNW 17 24 9 13 1015.4 1015.4 0.0
20/10:30am 21.6 18.6 12.0 54 5.4 NNW 19 26 10 14 1015.6 1015.6 0.0
20/10:00am 20.2 18.5 12.3 60 4.4 NW 13 19 7 10 1015.9 1015.9 0.0
20/09:30am 18.8 17.6 12.7 67 3.4 NW 11 13 6 7 1016.0 1016.0 0.0
20/09:00am 18.7 17.0 12.6 67 3.4 NW 13 15 7 8 1015.8 1015.8 1.8
20/08:30am 17.6 15.5 12.4 71 2.9 NW 15 20 8 11 1015.4 1015.4 1.8
20/08:00am 18.3 16.3 12.6 69 3.2 NW 15 20 8 11 1015.4 1015.4 1.8
20/07:30am 17.4 14.6 12.7 74 2.6 NW 19 24 10 13 1015.2 1015.2 1.8
20/07:00am 16.6 13.9 12.8 78 2.1 NW 19 24 10 13 1014.8 1014.8 1.8
20/06:30am 15.8 13.9 12.9 83 1.6 NW 15 22 8 12 1014.6 1014.6 1.8
20/06:00am 15.3 13.9 13.3 88 1.1 WNW 13 15 7 8 1014.4 1014.4 1.8
20/05:30am 15.4 13.2 13.2 87 1.2 NW 17 19 9 10 1014.0 1014.0 1.8
20/05:00am 15.0 12.4 13.2 89 1.0 NW 19 24 10 13 1013.8 1013.8 1.8
20/04:30am 15.3 12.7 13.3 88 1.1 NW 19 24 10 13 1013.2 1013.2 1.8
20/04:00am 15.2 11.7 13.4 89 1.0 WNW 24 30 13 16 1013.7 1013.7 1.8
20/03:30am 15.9 15.0 13.6 86 1.3 WNW 11 17 6 9 1013.6 1013.6 1.8
20/03:00am 16.0 14.3 13.7 86 1.3 NW 15 17 8 9 1013.7 1013.7 1.8
20/02:30am 16.3 14.9 13.4 83 1.6 NW 13 15 7 8 1013.8 1013.8 1.8
20/02:00am 16.8 15.4 13.4 80 1.9 N 13 15 7 8 1013.7 1013.7 1.8
20/01:30am 17.0 14.3 13.4 79 2.0 NNW 20 24 11 13 1013.7 1013.7 1.8
20/01:00am 17.5 13.6 13.4 77 2.3 NNW 26 32 14 17 1013.8 1013.8 1.8
20/12:30am 17.6 14.5 13.3 76 2.4 NW 22 30 12 16 1014.1 1014.1 1.8
20/12:00am 17.4 14.7 13.5 78 2.2 NNW 20 26 11 14 1014.4 1014.4 1.8
 
Date/Time
EST
Temp
°C
App
Temp
°C
Dew
Point
Rel
Hum
%
Delta-T
°C
Wind Press
QNH
hPa
Press
MSL
hPa
Rain
since 9 am
mm
Dir
 
Spd
km/h
Gust
km/h
Spd
kts
Gust
kts
19/11:30pm 17.2 15.2 14.0 81 1.8 NNW 17 19 9 10 1014.8 1014.8 1.8
19/11:00pm 17.2 15.8 14.4 83 1.6 NNW 15 17 8 9 1015.1 1015.1 1.8
19/10:30pm 17.5 15.9 14.9 85 1.5 NNW 17 19 9 10 1015.2 1015.2 1.8
19/10:00pm 17.9 16.3 15.0 83 1.7 N 17 22 9 12 1015.4 1015.4 1.8
19/09:30pm 18.0 16.0 14.9 82 1.8 N 19 22 10 12 1015.5 1015.5 1.8
19/09:00pm 17.6 15.8 15.6 88 1.2 N 19 22 10 12 1015.4 1015.4 1.8
19/08:30pm 18.0 17.9 16.0 88 1.2 N 11 20 6 11 1015.5 1015.5 1.8
19/08:00pm 18.5 17.0 16.3 87 1.3 NNE 19 20 10 11 1015.3 1015.3 1.8

Other Formats:

Comma delimited format used in spreadsheet applications
http://www.bom.gov.au/fwo/IDN60801/IDN60801.94767.axf

JavaScript Object Notation format (JSON) in row-major order
http://www.bom.gov.au/fwo/IDN60801/IDN60801.94767.json